Jsp Amihan — V2GX7 — position and weather

sailwx.info

Track history (hours):
 
Tides and Currents Weather Stations Pressure Air Temp Water Temp Dewpoint Dewpoint Depression Visibility Wind Speed Wind Dir Waves Ship Positions

Jsp Amihan

Last reported at 2018-Feb-15 07:43 UTC. Time now 2018-Feb-24 10:27 UTC.
Position N 26°08' W 079°32'.
Warning: this ship's position is 9 days out of date.

Length 139 m; draft 7.1 m.

Type: Ship (hazmat cat A). MMSI: 305007000.

Date/timePositionNaut miles runAvg speedWind from/ knotsBaromVisibWave heightAir tempDewpointWater temp
2018-Feb-15 07:43N 26°08' W 079°32'314.5
2018-Feb-15 07:30N 26°08' W 079°36'714.4
2018-Feb-15 07:00N 26°08' W 079°44'714.3
2018-Feb-15 06:30N 26°07' W 079°52'714.3
2018-Feb-15 06:00N 26°06' W 079°60'611.7
2018-Feb-15 05:30N 26°06' W 080°06'2 3.0
2018-Feb-15 05:00N 26°04' W 080°07'0 0.0
2018-Feb-15 04:30N 26°04' W 080°07'0 0.0
2018-Feb-15 04:00N 26°04' W 080°07'0 0.0
2018-Feb-15 03:30N 26°04' W 080°07'0 0.0
2018-Feb-15 03:00N 26°04' W 080°07'0 0.0
2018-Feb-15 02:30N 26°04' W 080°07'0 0.0
2018-Feb-15 02:00N 26°04' W 080°07'0 0.0
2018-Feb-15 01:30N 26°04' W 080°07'0 0.0
2018-Feb-15 01:00N 26°04' W 080°07'0 0.0
2018-Feb-15 00:30N 26°04' W 080°07'0 0.0
2018-Feb-15 00:00N 26°04' W 080°07'0 0.0
2018-Feb-14 23:30N 26°04' W 080°07'0 0.0
2018-Feb-14 22:59N 26°04' W 080°07'0 0.0
2018-Feb-14 22:29N 26°04' W 080°07'0 0.0
2018-Feb-14 21:58N 26°04' W 080°07'0 0.0
2018-Feb-14 21:28N 26°04' W 080°07'0 0.0
2018-Feb-14 20:58N 26°04' W 080°07'0 0.0
2018-Feb-14 20:28N 26°04' W 080°07'0 0.0
2018-Feb-14 19:58N 26°04' W 080°07'0 0.0
2018-Feb-14 19:28N 26°04' W 080°07'0 0.0
2018-Feb-14 18:58N 26°04' W 080°07'1 2.4
2018-Feb-14 18:30N 26°05' W 080°07'4 8.6
2018-Feb-14 18:00N 26°06' W 080°02'1 1.3
2018-Feb-14 17:31N 26°06' W 080°02'2 3.1
2018-Feb-14 17:00N 26°07' W 080°04'1 1.7
2018-Feb-14 16:27N 26°08' W 080°05'0 0.0
2018-Feb-14 16:00N 26°08' W 080°05'0 0.0
2018-Feb-14 15:30N 26°08' W 080°05'0 0.1
2018-Feb-14 14:57N 26°08' W 080°05'0 0.1
2018-Feb-14 14:30N 26°08' W 080°05'0 0.0
2018-Feb-14 14:00N 26°07' W 080°05'0 0.0
2018-Feb-14 13:30N 26°07' W 080°05'0 0.1
2018-Feb-14 12:57N 26°07' W 080°05'0 0.1
2018-Feb-14 12:30N 26°07' W 080°05'0 0.0
2018-Feb-14 12:00N 26°07' W 080°05'0 0.1
2018-Feb-14 11:30N 26°07' W 080°05'0 0.0
2018-Feb-14 11:00N 26°07' W 080°05'0 0.1
2018-Feb-14 10:30N 26°08' W 080°05'0 0.0
2018-Feb-14 10:00N 26°07' W 080°05'0 0.0
2018-Feb-14 09:30N 26°07' W 080°05'0 0.0
2018-Feb-14 09:00N 26°07' W 080°05'0 0.0
2018-Feb-14 08:30N 26°07' W 080°05'0 0.0
2018-Feb-14 08:00N 26°07' W 080°05'0 0.0
2018-Feb-14 07:30N 26°07' W 080°05'0 0.0
2018-Feb-14 07:00N 26°07' W 080°05'0 0.0
2018-Feb-14 06:27N 26°07' W 080°05'0 0.0
2018-Feb-14 06:00N 26°07' W 080°05'0 0.1
2018-Feb-14 05:24N 26°07' W 080°05'0 0.1
2018-Feb-14 04:57N 26°07' W 080°05'0 0.0
2018-Feb-14 04:30N 26°07' W 080°05'0 0.0
2018-Feb-14 03:57N 26°07' W 080°05'0 0.0
2018-Feb-14 03:27N 26°07' W 080°05'0 0.1
2018-Feb-14 03:00N 26°07' W 080°05'0 0.0
2018-Feb-14 02:30N 26°07' W 080°05'0 0.0
2018-Feb-14 02:00N 26°07' W 080°05'0 0.1
2018-Feb-14 01:27N 26°07' W 080°05'0 0.0
2018-Feb-14 01:00N 26°07' W 080°05'0 0.0
2018-Feb-14 00:27N 26°07' W 080°05'0 0.0
2018-Feb-14 00:00N 26°07' W 080°05'0 0.0
2018-Feb-13 23:30N 26°07' W 080°05'0 0.0
2018-Feb-13 23:00N 26°07' W 080°05'0 0.0
2018-Feb-13 22:30N 26°07' W 080°05'0 0.0
2018-Feb-13 21:57N 26°07' W 080°05'0 0.0
2018-Feb-13 21:30N 26°07' W 080°05'0 0.0
2018-Feb-13 21:00N 26°07' W 080°05'0 0.1
2018-Feb-13 20:30N 26°07' W 080°05'0 0.0
2018-Feb-13 20:00N 26°08' W 080°05'0 0.0
2018-Feb-13 19:30N 26°08' W 080°05'0 0.0
2018-Feb-13 19:00N 26°07' W 080°05'0 0.0
2018-Feb-13 18:30N 26°07' W 080°05'0 0.0
2018-Feb-13 17:51N 26°07' W 080°05'0 0.0
2018-Feb-13 17:30N 26°07' W 080°05'0 0.0
2018-Feb-13 17:00N 26°07' W 080°05'0 0.0
2018-Feb-13 16:30N 26°07' W 080°05'0 0.0
2018-Feb-13 15:57N 26°07' W 080°05'0 0.0
2018-Feb-13 15:30N 26°07' W 080°05'0 0.0
2018-Feb-13 14:57N 26°07' W 080°05'0 0.0
2018-Feb-13 14:26N 26°07' W 080°05'0 0.0
2018-Feb-13 13:59N 26°07' W 080°05'0 0.0
2018-Feb-13 13:29N 26°07' W 080°05'0 0.0
2018-Feb-13 12:59N 26°07' W 080°05'0 0.0
2018-Feb-13 12:26N 26°07' W 080°05'0 0.0
2018-Feb-13 11:59N 26°07' W 080°05'0 0.0
2018-Feb-13 11:29N 26°07' W 080°05'0 0.0
2018-Feb-13 10:59N 26°07' W 080°05'0 0.0
2018-Feb-13 10:29N 26°07' W 080°05'0 0.0
2018-Feb-13 09:56N 26°07' W 080°05'0 0.0
2018-Feb-13 09:29N 26°07' W 080°05'0 0.0
2018-Feb-13 08:59N 26°08' W 080°05'0 0.0
2018-Feb-13 08:26N 26°08' W 080°05'0 0.0
2018-Feb-13 07:59N 26°08' W 080°05'0 0.0
2018-Feb-13 07:29N 26°08' W 080°05'0 0.0
2018-Feb-13 06:59N 26°08' W 080°05'0 0.0
2018-Feb-13 06:29N 26°08' W 080°05'0 0.0
2018-Feb-13 05:59N 26°08' W 080°05'0 0.0
2018-Feb-13 05:29N 26°08' W 080°05'0 0.0
2018-Feb-13 04:59N 26°08' W 080°05'0 0.1
2018-Feb-13 04:29N 26°07' W 080°05'0 0.0
2018-Feb-13 03:59N 26°07' W 080°05'0 0.0
2018-Feb-13 03:29N 26°07' W 080°05'0 0.0
2018-Feb-13 02:59N 26°07' W 080°05'0 0.0
2018-Feb-13 02:29N 26°07' W 080°05'0 0.0
2018-Feb-13 01:59N 26°07' W 080°05'0 0.0
2018-Feb-13 01:29N 26°07' W 080°05'0 0.0
2018-Feb-13 00:50N 26°07' W 080°05'0 0.0
2018-Feb-13 00:29N 26°07' W 080°05'0 0.0
2018-Feb-12 23:56N 26°07' W 080°05'0 0.0
2018-Feb-12 23:26N 26°07' W 080°05'0 0.0
2018-Feb-12 22:59N 26°07' W 080°05'0 0.0
2018-Feb-12 22:29N 26°07' W 080°05'0 0.0
2018-Feb-12 21:59N 26°07' W 080°05'0 0.0
2018-Feb-12 21:29N 26°07' W 080°05'0 0.0
2018-Feb-12 20:56N 26°07' W 080°05'0 0.0
2018-Feb-12 20:26N 26°07' W 080°05'0 0.0
2018-Feb-12 19:59N 26°07' W 080°05'0 0.0
2018-Feb-12 19:29N 26°07' W 080°05'0 0.0
2018-Feb-12 18:59N 26°07' W 080°05'0 0.0
2018-Feb-12 18:29N 26°07' W 080°05'0 0.1
2018-Feb-12 17:59N 26°07' W 080°05'0 0.7
2018-Feb-12 17:30N 26°07' W 080°04'5 9.2
2018-Feb-12 17:00N 26°07' W 079°59'4 8.9
2018-Feb-12 16:30N 26°08' W 079°54'5 9.5
2018-Feb-12 16:00N 26°08' W 079°49'5 9.6
2018-Feb-12 15:30N 26°08' W 079°44'5 9.7
2018-Feb-12 15:00N 26°09' W 079°38'611.0
2018-Feb-12 14:30N 26°09' W 079°32'1 0.0
2018-Feb-10 11:37N 26°10' W 079°32'214.3
2018-Feb-10 11:30N 26°09' W 079°33'713.6
2018-Feb-10 10:59N 26°08' W 079°41'713.3
2018-Feb-10 10:29N 26°08' W 079°48'613.2
2018-Feb-10 10:00N 26°08' W 079°55'713.7
2018-Feb-10 09:31N 26°06' W 080°03'4 8.0
2018-Feb-10 09:00N 26°05' W 080°07'1 1.6
2018-Feb-10 08:28N 26°04' W 080°07'0 0.0
2018-Feb-10 07:58N 26°04' W 080°07'0 0.0
2018-Feb-10 07:28N 26°04' W 080°07'0 0.0
2018-Feb-10 07:00N 26°04' W 080°07'0 0.0
2018-Feb-10 06:30N 26°04' W 080°07'0 0.0
2018-Feb-10 06:00N 26°04' W 080°07'0 0.0
2018-Feb-10 05:30N 26°04' W 080°07'0 0.0
2018-Feb-10 05:00N 26°04' W 080°07'0 0.1
2018-Feb-10 04:30N 26°04' W 080°07'0 0.4
2018-Feb-10 04:00N 26°04' W 080°07'0 0.0
2018-Feb-10 03:30N 26°04' W 080°07'0 0.0
2018-Feb-10 03:00N 26°04' W 080°07'0 0.0
2018-Feb-10 02:30N 26°04' W 080°07'0 0.0
2018-Feb-10 02:00N 26°04' W 080°07'0 0.0
2018-Feb-10 01:29N 26°04' W 080°07'0 0.0
2018-Feb-10 00:59N 26°04' W 080°07'0 0.0
2018-Feb-10 00:29N 26°04' W 080°07'0 0.0
2018-Feb-09 23:59N 26°04' W 080°07'0 0.0
2018-Feb-09 23:28N 26°04' W 080°07'0 0.0
2018-Feb-09 22:58N 26°04' W 080°07'0 0.0
2018-Feb-09 22:44N 26°04' W 080°07'1 0.3
2018-Feb-09 17:31N 26°06' W 080°06'5 5.3
2018-Feb-09 16:30N 26°06' W 080°01'  
Track history (hours):
 
Tides and Currents Weather Stations Pressure Air Temp Water Temp Dewpoint Dewpoint Depression Visibility Wind Speed Wind Dir Waves Ship Positions

Jsp Amihan

Last reported at 2018-Feb-15 07:43 UTC. Time now 2018-Feb-24 10:27 UTC.
Position N 26°08' W 079°32'.
Warning: this ship's position is 9 days out of date.

Length 139 m; draft 7.1 m.

Type: Ship (hazmat cat A). MMSI: 305007000.

Date/timePositionNaut miles runAvg speedWind from/ knotsBaromVisibWave heightAir tempDewpointWater temp
2018-Feb-15 07:43N 26°08' W 079°32'314.5
2018-Feb-15 07:30N 26°08' W 079°36'714.4
2018-Feb-15 07:00N 26°08' W 079°44'714.3
2018-Feb-15 06:30N 26°07' W 079°52'714.3
2018-Feb-15 06:00N 26°06' W 079°60'611.7
2018-Feb-15 05:30N 26°06' W 080°06'2 3.0
2018-Feb-15 05:00N 26°04' W 080°07'0 0.0
2018-Feb-15 04:30N 26°04' W 080°07'0 0.0
2018-Feb-15 04:00N 26°04' W 080°07'0 0.0
2018-Feb-15 03:30N 26°04' W 080°07'0 0.0
2018-Feb-15 03:00N 26°04' W 080°07'0 0.0
2018-Feb-15 02:30N 26°04' W 080°07'0 0.0
2018-Feb-15 02:00N 26°04' W 080°07'0 0.0
2018-Feb-15 01:30N 26°04' W 080°07'0 0.0
2018-Feb-15 01:00N 26°04' W 080°07'0 0.0
2018-Feb-15 00:30N 26°04' W 080°07'0 0.0
2018-Feb-15 00:00N 26°04' W 080°07'0 0.0
2018-Feb-14 23:30N 26°04' W 080°07'0 0.0
2018-Feb-14 22:59N 26°04' W 080°07'0 0.0
2018-Feb-14 22:29N 26°04' W 080°07'0 0.0
2018-Feb-14 21:58N 26°04' W 080°07'0 0.0
2018-Feb-14 21:28N 26°04' W 080°07'0 0.0
2018-Feb-14 20:58N 26°04' W 080°07'0 0.0
2018-Feb-14 20:28N 26°04' W 080°07'0 0.0
2018-Feb-14 19:58N 26°04' W 080°07'0 0.0
2018-Feb-14 19:28N 26°04' W 080°07'0 0.0
2018-Feb-14 18:58N 26°04' W 080°07'1 2.4
2018-Feb-14 18:30N 26°05' W 080°07'4 8.6
2018-Feb-14 18:00N 26°06' W 080°02'1 1.3
2018-Feb-14 17:31N 26°06' W 080°02'2 3.1
2018-Feb-14 17:00N 26°07' W 080°04'1 1.7
2018-Feb-14 16:27N 26°08' W 080°05'0 0.0
2018-Feb-14 16:00N 26°08' W 080°05'0 0.0
2018-Feb-14 15:30N 26°08' W 080°05'0 0.1
2018-Feb-14 14:57N 26°08' W 080°05'0 0.1
2018-Feb-14 14:30N 26°08' W 080°05'0 0.0
2018-Feb-14 14:00N 26°07' W 080°05'0 0.0
2018-Feb-14 13:30N 26°07' W 080°05'0 0.1
2018-Feb-14 12:57N 26°07' W 080°05'0 0.1
2018-Feb-14 12:30N 26°07' W 080°05'0 0.0
2018-Feb-14 12:00N 26°07' W 080°05'0 0.1
2018-Feb-14 11:30N 26°07' W 080°05'0 0.0
2018-Feb-14 11:00N 26°07' W 080°05'0 0.1
2018-Feb-14 10:30N 26°08' W 080°05'0 0.0
2018-Feb-14 10:00N 26°07' W 080°05'0 0.0
2018-Feb-14 09:30N 26°07' W 080°05'0 0.0
2018-Feb-14 09:00N 26°07' W 080°05'0 0.0
2018-Feb-14 08:30N 26°07' W 080°05'0 0.0
2018-Feb-14 08:00N 26°07' W 080°05'0 0.0
2018-Feb-14 07:30N 26°07' W 080°05'0 0.0
2018-Feb-14 07:00N 26°07' W 080°05'0 0.0
2018-Feb-14 06:27N 26°07' W 080°05'0 0.0
2018-Feb-14 06:00N 26°07' W 080°05'0 0.1
2018-Feb-14 05:24N 26°07' W 080°05'0 0.1
2018-Feb-14 04:57N 26°07' W 080°05'0 0.0
2018-Feb-14 04:30N 26°07' W 080°05'0 0.0
2018-Feb-14 03:57N 26°07' W 080°05'0 0.0
2018-Feb-14 03:27N 26°07' W 080°05'0 0.1
2018-Feb-14 03:00N 26°07' W 080°05'0 0.0
2018-Feb-14 02:30N 26°07' W 080°05'0 0.0
2018-Feb-14 02:00N 26°07' W 080°05'0 0.1
2018-Feb-14 01:27N 26°07' W 080°05'0 0.0
2018-Feb-14 01:00N 26°07' W 080°05'0 0.0
2018-Feb-14 00:27N 26°07' W 080°05'0 0.0
2018-Feb-14 00:00N 26°07' W 080°05'0 0.0
2018-Feb-13 23:30N 26°07' W 080°05'0 0.0
2018-Feb-13 23:00N 26°07' W 080°05'0 0.0
2018-Feb-13 22:30N 26°07' W 080°05'0 0.0
2018-Feb-13 21:57N 26°07' W 080°05'0 0.0
2018-Feb-13 21:30N 26°07' W 080°05'0 0.0
2018-Feb-13 21:00N 26°07' W 080°05'0 0.1
2018-Feb-13 20:30N 26°07' W 080°05'0 0.0
2018-Feb-13 20:00N 26°08' W 080°05'0 0.0
2018-Feb-13 19:30N 26°08' W 080°05'0 0.0
2018-Feb-13 19:00N 26°07' W 080°05'0 0.0
2018-Feb-13 18:30N 26°07' W 080°05'0 0.0
2018-Feb-13 17:51N 26°07' W 080°05'0 0.0
2018-Feb-13 17:30N 26°07' W 080°05'0 0.0
2018-Feb-13 17:00N 26°07' W 080°05'0 0.0
2018-Feb-13 16:30N 26°07' W 080°05'0 0.0
2018-Feb-13 15:57N 26°07' W 080°05'0 0.0
2018-Feb-13 15:30N 26°07' W 080°05'0 0.0
2018-Feb-13 14:57N 26°07' W 080°05'0 0.0
2018-Feb-13 14:26N 26°07' W 080°05'0 0.0
2018-Feb-13 13:59N 26°07' W 080°05'0 0.0
2018-Feb-13 13:29N 26°07' W 080°05'0 0.0
2018-Feb-13 12:59N 26°07' W 080°05'0 0.0
2018-Feb-13 12:26N 26°07' W 080°05'0 0.0
2018-Feb-13 11:59N 26°07' W 080°05'0 0.0
2018-Feb-13 11:29N 26°07' W 080°05'0 0.0
2018-Feb-13 10:59N 26°07' W 080°05'0 0.0
2018-Feb-13 10:29N 26°07' W 080°05'0 0.0
2018-Feb-13 09:56N 26°07' W 080°05'0 0.0
2018-Feb-13 09:29N 26°07' W 080°05'0 0.0
2018-Feb-13 08:59N 26°08' W 080°05'0 0.0
2018-Feb-13 08:26N 26°08' W 080°05'0 0.0
2018-Feb-13 07:59N 26°08' W 080°05'0 0.0
2018-Feb-13 07:29N 26°08' W 080°05'0 0.0
2018-Feb-13 06:59N 26°08' W 080°05'0 0.0
2018-Feb-13 06:29N 26°08' W 080°05'0 0.0
2018-Feb-13 05:59N 26°08' W 080°05'0 0.0
2018-Feb-13 05:29N 26°08' W 080°05'0 0.0
2018-Feb-13 04:59N 26°08' W 080°05'0 0.1
2018-Feb-13 04:29N 26°07' W 080°05'0 0.0
2018-Feb-13 03:59N 26°07' W 080°05'0 0.0
2018-Feb-13 03:29N 26°07' W 080°05'0 0.0
2018-Feb-13 02:59N 26°07' W 080°05'0 0.0
2018-Feb-13 02:29N 26°07' W 080°05'0 0.0
2018-Feb-13 01:59N 26°07' W 080°05'0 0.0
2018-Feb-13 01:29N 26°07' W 080°05'0 0.0
2018-Feb-13 00:50N 26°07' W 080°05'0 0.0
2018-Feb-13 00:29N 26°07' W 080°05'0 0.0
2018-Feb-12 23:56N 26°07' W 080°05'0 0.0
2018-Feb-12 23:26N 26°07' W 080°05'0 0.0
2018-Feb-12 22:59N 26°07' W 080°05'0 0.0
2018-Feb-12 22:29N 26°07' W 080°05'0 0.0
2018-Feb-12 21:59N 26°07' W 080°05'0 0.0
2018-Feb-12 21:29N 26°07' W 080°05'0 0.0
2018-Feb-12 20:56N 26°07' W 080°05'0 0.0
2018-Feb-12 20:26N 26°07' W 080°05'0 0.0
2018-Feb-12 19:59N 26°07' W 080°05'0 0.0
2018-Feb-12 19:29N 26°07' W 080°05'0 0.0
2018-Feb-12 18:59N 26°07' W 080°05'0 0.0
2018-Feb-12 18:29N 26°07' W 080°05'0 0.1
2018-Feb-12 17:59N 26°07' W 080°05'0 0.7
2018-Feb-12 17:30N 26°07' W 080°04'5 9.2
2018-Feb-12 17:00N 26°07' W 079°59'4 8.9
2018-Feb-12 16:30N 26°08' W 079°54'5 9.5
2018-Feb-12 16:00N 26°08' W 079°49'5 9.6
2018-Feb-12 15:30N 26°08' W 079°44'5 9.7
2018-Feb-12 15:00N 26°09' W 079°38'611.0
2018-Feb-12 14:30N 26°09' W 079°32'1 0.0
2018-Feb-10 11:37N 26°10' W 079°32'214.3
2018-Feb-10 11:30N 26°09' W 079°33'713.6
2018-Feb-10 10:59N 26°08' W 079°41'713.3
2018-Feb-10 10:29N 26°08' W 079°48'613.2
2018-Feb-10 10:00N 26°08' W 079°55'713.7
2018-Feb-10 09:31N 26°06' W 080°03'4 8.0
2018-Feb-10 09:00N 26°05' W 080°07'1 1.6
2018-Feb-10 08:28N 26°04' W 080°07'0 0.0
2018-Feb-10 07:58N 26°04' W 080°07'0 0.0
2018-Feb-10 07:28N 26°04' W 080°07'0 0.0
2018-Feb-10 07:00N 26°04' W 080°07'0 0.0
2018-Feb-10 06:30N 26°04' W 080°07'0 0.0
2018-Feb-10 06:00N 26°04' W 080°07'0 0.0
2018-Feb-10 05:30N 26°04' W 080°07'0 0.0
2018-Feb-10 05:00N 26°04' W 080°07'0 0.1
2018-Feb-10 04:30N 26°04' W 080°07'0 0.4
2018-Feb-10 04:00N 26°04' W 080°07'0 0.0
2018-Feb-10 03:30N 26°04' W 080°07'0 0.0
2018-Feb-10 03:00N 26°04' W 080°07'0 0.0
2018-Feb-10 02:30N 26°04' W 080°07'0 0.0
2018-Feb-10 02:00N 26°04' W 080°07'0 0.0
2018-Feb-10 01:29N 26°04' W 080°07'0 0.0
2018-Feb-10 00:59N 26°04' W 080°07'0 0.0
2018-Feb-10 00:29N 26°04' W 080°07'0 0.0
2018-Feb-09 23:59N 26°04' W 080°07'0 0.0
2018-Feb-09 23:28N 26°04' W 080°07'0 0.0
2018-Feb-09 22:58N 26°04' W 080°07'0 0.0
2018-Feb-09 22:44N 26°04' W 080°07'1 0.3
2018-Feb-09 17:31N 26°06' W 080°06'5 5.3
2018-Feb-09 16:30N 26°06' W 080°01'  

Dump ship's entire track history